Pagina principale
METAR-TAF:

METAR-TAF

Aeroporti :

Lorient, Francia

latitudine: 47-46N, longitudine: 003-27W, altezza: 52 m

Osservazione

Il bollettino è stato emesso 47 minuti fa, alle 22:30 UTC
Vento 17 kt da nord-est
Temperature 5°C
Umidità 56%
Pressione 1029 hPa
Visibilità 10 km o più
nessuna nube inferiore a 1500 m e nessun cumulonembo

METAR: LFRH 222230Z AUTO 05017KT CAVOK 05/M03 Q1029 BECMG 05010G20KT

Ora: 00:17 (23:17 UTC)

Previsione

Il bollettino è stato emesso 6 ore e 17 minuti fa, alle 17:00 UTC
Previsione valida dal 22 alle 18 UTC al 23 alle 18 UTC
Vento 10 kt da nord-est con raffiche fino a 20 kt
Visibilità 10 km o più
nessuna nube inferiore a 1500 m e nessun cumulonembo

TAF: LFRH 221700Z 2218/2318 05010G20KT CAVOK

Osservazioni e previsioni meteorologiche di più di 4000 aeroporti (messaggi METAR e TAF).

Le stazioni disponibili sono rappresentate dai dischi gialli e rossi sulla carta.

Puntare il mouse per vedere il nome della stazione.

Clicca sopra per visualizzare le osservazioni e previsioni meteorologiche.

Per cambiare la mappa : fare clic sui pulsanti verdi con una croce nera per ingrandire, il pulsante verde con un trattino per diminuire, o sulla freccia verde per le mappe adiacenti.


METAR-TAF: